Time;durP1;ratioP1;P1;durP2;ratioP2;P2;SDS_P1;SDS_P2;PMS_P1;PMS_P2;Temp;Humidity;BMP_temperature;BMP_pressure;BME280_temperature;BME280_humidity;BME280_pressure;Samples;Min_cycle;Max_cycle;Signal;HPM_P1;HPM_P2
2021/09/28 00:01:20;;;;;;;1.85;1.23;;;;;;;13.68;nan;101194.84;5055768;28;20025;-79
2021/09/28 00:03:46;;;;;;;2.03;1.20;;;;;;;13.72;nan;101198.00;5073372;28;20032;-79
2021/09/28 00:06:11;;;;;;;1.73;1.23;;;;;;;13.71;nan;101202.47;5072286;28;20432;-78
2021/09/28 00:08:37;;;;;;;2.28;1.30;;;;;;;13.71;nan;101206.97;5073458;28;20039;-79
2021/09/28 00:11:03;;;;;;;1.95;1.33;;;;;;;13.71;nan;101199.00;5073579;28;20039;-79
2021/09/28 00:13:28;;;;;;;1.88;1.35;;;;;;;13.70;nan;101214.09;5074009;28;20033;-79
2021/09/28 00:15:53;;;;;;;2.72;1.40;;;;;;;13.66;nan;101214.56;5055344;28;21079;-79
2021/09/28 00:18:18;;;;;;;2.40;1.50;;;;;;;13.59;nan;101212.53;5055490;28;20029;-78
2021/09/28 00:20:44;;;;;;;2.30;1.40;;;;;;;13.57;nan;101219.00;5055829;28;20235;-79
2021/09/28 00:23:13;;;;;;;2.78;1.30;;;;;;;13.55;nan;101223.63;5073258;28;20030;-79
2021/09/28 00:25:39;;;;;;;3.65;1.40;;;;;;;13.54;nan;101224.63;5072279;28;20040;-78
2021/09/28 00:28:04;;;;;;;2.67;1.23;;;;;;;13.51;nan;101216.94;5071675;28;20032;-78
2021/09/28 00:30:30;;;;;;;1.50;1.00;;;;;;;13.50;nan;101229.41;5071279;28;20039;-78
2021/09/28 00:32:55;;;;;;;1.80;1.10;;;;;;;13.50;nan;101231.22;5053116;28;20078;-78
2021/09/28 00:35:20;;;;;;;1.70;1.10;;;;;;;13.49;nan;101225.09;5052603;28;20033;-78
2021/09/28 00:37:45;;;;;;;1.23;0.73;;;;;;;13.47;nan;101226.22;5051338;28;20109;-78
2021/09/28 00:40:11;;;;;;;2.05;0.90;;;;;;;13.42;nan;101218.72;5071922;28;20374;-78
2021/09/28 00:42:36;;;;;;;1.38;0.80;;;;;;;13.40;nan;101214.53;5071788;28;20497;-78
2021/09/28 00:45:03;;;;;;;1.13;0.70;;;;;;;13.37;nan;101215.66;5056118;28;20040;-78
2021/09/28 00:47:28;;;;;;;1.25;0.70;;;;;;;13.33;nan;101216.97;5072510;28;20115;-78
2021/09/28 00:49:54;;;;;;;2.67;0.90;;;;;;;13.27;nan;101215.75;5071937;28;20066;-78
2021/09/28 00:52:20;;;;;;;2.03;0.73;;;;;;;13.22;nan;101210.03;5070998;28;20139;-78
2021/09/28 00:54:47;;;;;;;1.33;0.75;;;;;;;13.14;nan;101212.63;5072839;28;20039;-78
2021/09/28 00:57:15;;;;;;;3.00;0.90;;;;;;;13.08;nan;101202.59;5071644;28;20036;-78
2021/09/28 00:59:41;;;;;;;1.35;0.82;;;;;;;13.02;nan;101205.88;5072717;28;20048;-78
2021/09/28 01:02:08;;;;;;;1.40;0.90;;;;;;;12.91;nan;101206.91;5054566;28;20497;-78
2021/09/28 01:04:33;;;;;;;2.78;0.90;;;;;;;12.87;nan;101211.69;5071843;28;20041;-78
2021/09/28 01:06:59;;;;;;;1.83;0.80;;;;;;;12.81;nan;101212.28;5071418;28;20051;-78
2021/09/28 01:09:26;;;;;;;4.75;0.95;;;;;;;12.86;nan;101209.19;5070189;28;20093;-79
2021/09/28 01:11:52;;;;;;;2.30;0.82;;;;;;;12.87;nan;101227.63;5069368;28;20036;-77
2021/09/28 01:14:18;;;;;;;2.95;1.10;;;;;;;12.88;nan;101223.97;5049370;28;20037;-77
2021/09/28 01:16:43;;;;;;;1.90;0.93;;;;;;;12.85;nan;101234.06;5070140;28;20029;-77
2021/09/28 01:19:09;;;;;;;1.38;0.90;;;;;;;12.77;nan;101237.44;5051900;28;20033;-77
2021/09/28 01:21:36;;;;;;;1.38;0.90;;;;;;;12.67;nan;101237.50;5069598;28;20040;-80
2021/09/28 01:24:02;;;;;;;1.83;0.90;;;;;;;12.54;nan;101237.84;5069049;28;20034;-77
2021/09/28 01:26:28;;;;;;;1.75;1.08;;;;;;;12.54;nan;101229.91;5068515;28;20032;-77
2021/09/28 01:28:55;;;;;;;4.03;1.23;;;;;;;12.61;nan;101237.25;5051811;28;20519;-77
2021/09/28 01:31:21;;;;;;;1.92;1.13;;;;;;;12.62;nan;101245.06;5070348;28;20033;-79
2021/09/28 01:33:46;;;;;;;2.78;1.00;;;;;;;12.56;nan;101243.03;5069827;28;20068;-77
2021/09/28 01:36:12;;;;;;;1.77;1.00;;;;;;;12.50;nan;101251.56;5069461;28;20032;-79
2021/09/28 01:38:38;;;;;;;1.55;1.10;;;;;;;12.44;nan;101252.13;5070075;28;20512;-78
2021/09/28 01:41:03;;;;;;;1.83;1.00;;;;;;;12.40;nan;101258.72;5054370;28;20400;-78
2021/09/28 01:43:29;;;;;;;2.05;1.10;;;;;;;12.31;nan;101257.78;5072898;28;20655;-78
2021/09/28 01:45:56;;;;;;;2.95;1.17;;;;;;;12.29;nan;101260.56;5070380;28;20036;-78
2021/09/28 01:48:27;;;;;;;1.95;1.17;;;;;;;12.31;nan;101265.72;5067221;28;20131;-78
2021/09/28 01:50:52;;;;;;;3.33;1.40;;;;;;;12.43;nan;101261.91;5074887;28;20074;-78
2021/09/28 01:53:17;;;;;;;2.35;1.13;;;;;;;12.35;nan;101269.78;5071267;28;20040;-78
2021/09/28 01:55:43;;;;;;;2.25;1.10;;;;;;;12.41;nan;101263.03;5071207;28;20125;-78
2021/09/28 01:58:08;;;;;;;2.75;1.10;;;;;;;12.36;nan;101260.81;5073899;28;20035;-78
2021/09/28 02:00:33;;;;;;;1.92;1.20;;;;;;;12.31;nan;101271.03;5053563;28;20147;-78
2021/09/28 02:03:00;;;;;;;1.48;0.93;;;;;;;12.29;nan;101268.50;5071810;28;20035;-78
2021/09/28 02:05:25;;;;;;;2.15;1.40;;;;;;;12.22;nan;101269.25;5074321;28;20070;-78
2021/09/28 02:07:51;;;;;;;1.75;0.80;;;;;;;12.19;nan;101269.53;5056060;28;20407;-78
2021/09/28 02:10:16;;;;;;;1.52;0.90;;;;;;;12.18;nan;101270.50;5075070;28;20052;-78
2021/09/28 02:12:42;;;;;;;1.23;0.83;;;;;;;12.21;nan;101270.22;5055339;28;20415;-78
2021/09/28 02:15:07;;;;;;;1.23;0.70;;;;;;;12.22;nan;101271.88;5055658;28;20749;-78
2021/09/28 02:17:33;;;;;;;1.10;0.60;;;;;;;12.18;nan;101270.50;5055776;28;20403;-78
2021/09/28 02:19:58;;;;;;;1.20;0.70;;;;;;;12.10;nan;101266.75;5074248;28;20412;-78
2021/09/28 02:22:23;;;;;;;1.20;0.70;;;;;;;12.12;nan;101274.56;5057947;28;20450;-78
2021/09/28 02:24:49;;;;;;;2.00;0.85;;;;;;;12.07;nan;101276.81;5060629;28;20037;-78
2021/09/28 02:27:15;;;;;;;;;;;;;;;12.06;nan;101283.94;5079179;28;20043;-77
2021/09/28 02:29:40;;;;;;;3.57;1.10;;;;;;;12.16;nan;101277.78;5085600;28;20343;-78
2021/09/28 02:32:06;;;;;;;1.60;0.98;;;;;;;12.10;nan;101282.66;5078417;28;20032;-77
2021/09/28 02:34:35;;;;;;;1.88;0.98;;;;;;;12.06;nan;101283.09;5075175;28;20051;-78
2021/09/28 02:37:04;;;;;;;2.45;0.90;;;;;;;12.13;nan;101272.75;5071896;28;20636;-78
2021/09/28 02:39:30;;;;;;;1.92;0.82;;;;;;;12.07;nan;101276.81;5074523;28;20044;-78
2021/09/28 02:41:56;;;;;;;1.35;0.93;;;;;;;12.04;nan;101277.94;5074589;28;20119;-77
2021/09/28 02:44:21;;;;;;;2.53;1.05;;;;;;;11.94;nan;101271.84;5056519;28;20072;-78
2021/09/28 02:46:46;;;;;;;1.92;1.20;;;;;;;11.88;nan;101278.53;5074949;28;20032;-78
2021/09/28 02:49:12;;;;;;;1.95;0.98;;;;;;;11.83;nan;101282.56;5074156;28;20118;-78
2021/09/28 02:51:38;;;;;;;;;;;;;;;11.80;nan;101267.78;5074506;28;20040;-78
2021/09/28 02:54:03;;;;;;;;;;;;;;;11.79;nan;101267.91;5075231;28;19927;-78
2021/09/28 02:56:28;;;;;;;2.37;1.17;;;;;;;11.80;nan;101277.53;5074159;28;19917;-77
2021/09/28 02:58:54;;;;;;;2.30;1.10;;;;;;;11.83;nan;101270.13;5074350;28;20595;-78
2021/09/28 03:01:19;;;;;;;2.65;1.52;;;;;;;11.87;nan;101273.38;5074150;28;20032;-77
2021/09/28 03:03:44;;;;;;;2.30;1.30;;;;;;;11.80;nan;101281.03;5054242;28;20041;-77
2021/09/28 03:06:10;;;;;;;2.53;1.17;;;;;;;11.74;nan;101284.22;5072362;28;20066;-78
2021/09/28 03:08:35;;;;;;;2.22;1.13;;;;;;;11.69;nan;101284.66;5055805;28;20029;-77
2021/09/28 03:11:00;;;;;;;2.13;1.23;;;;;;;11.71;nan;101288.97;5056197;28;20396;-77
2021/09/28 03:13:26;;;;;;;2.28;1.27;;;;;;;11.79;nan;101281.16;5073075;28;20033;-78
2021/09/28 03:15:51;;;;;;;2.45;1.20;;;;;;;11.82;nan;101284.38;5072408;28;20033;-78
2021/09/28 03:18:17;;;;;;;2.10;1.15;;;;;;;11.82;nan;101284.38;5055636;28;20059;-78
2021/09/28 03:20:42;;;;;;;2.85;1.42;;;;;;;11.81;nan;101282.69;5073523;28;20052;-78
2021/09/28 03:23:07;;;;;;;2.15;1.30;;;;;;;11.87;nan;101292.75;5074404;28;20028;-77
2021/09/28 03:25:35;;;;;;;;;;;;;;;11.90;nan;101300.41;5074636;28;20037;-78
2021/09/28 03:28:01;;;;;;;1.75;1.10;;;;;;;12.03;nan;101301.94;5073398;28;19920;-78
2021/09/28 03:30:26;;;;;;;3.13;1.38;;;;;;;12.10;nan;101297.72;5055676;28;20044;-78
2021/09/28 03:32:51;;;;;;;2.08;1.23;;;;;;;12.15;nan;101302.63;5056228;28;20031;-77
2021/09/28 03:35:16;;;;;;;2.50;1.45;;;;;;;12.21;nan;101291.44;5055271;28;20044;-78
2021/09/28 03:37:42;;;;;;;2.53;1.52;;;;;;;12.23;nan;101308.06;5076788;28;20028;-78
2021/09/28 03:40:10;;;;;;;2.83;1.48;;;;;;;12.26;nan;101307.75;5077264;28;20040;-78
2021/09/28 03:42:35;;;;;;;;;;;;;;;12.28;nan;101311.94;5059304;28;20139;-78
2021/09/28 03:45:01;;;;;;;2.95;1.30;;;;;;;12.28;nan;101309.28;5059013;28;19920;-77
2021/09/28 03:47:27;;;;;;;2.53;1.45;;;;;;;12.34;nan;101315.81;5071929;28;20037;-77
2021/09/28 03:49:52;;;;;;;2.60;1.65;;;;;;;12.37;nan;101320.00;5070381;28;20040;-78
2021/09/28 03:52:18;;;;;;;2.80;1.52;;;;;;;12.36;nan;101321.00;5069887;28;20543;-78
2021/09/28 03:54:43;;;;;;;3.85;1.60;;;;;;;12.45;nan;101323.63;5051609;28;20480;-77
2021/09/28 03:57:08;;;;;;;3.22;1.50;;;;;;;12.49;nan;101322.34;5070784;28;20035;-78
2021/09/28 03:59:33;;;;;;;;;;;;;;;12.49;nan;101322.34;5073958;28;20060;-78
2021/09/28 04:01:59;;;;;;;3.53;1.70;;;;;;;12.50;nan;101318.69;5072019;28;19920;-78
2021/09/28 04:04:24;;;;;;;2.80;1.50;;;;;;;12.52;nan;101324.69;5072124;28;20168;-78
2021/09/28 04:06:50;;;;;;;2.80;1.83;;;;;;;12.58;nan;101325.94;5071475;28;20303;-78
2021/09/28 04:09:15;;;;;;;4.15;1.50;;;;;;;12.58;nan;101322.44;5071872;28;20052;-78
2021/09/28 04:11:40;;;;;;;2.22;1.52;;;;;;;12.55;nan;101318.28;5071822;28;20562;-78
2021/09/28 04:14:09;;;;;;;3.55;1.90;;;;;;;12.54;nan;101316.63;5051448;28;20063;-77
2021/09/28 04:16:36;;;;;;;4.28;1.38;;;;;;;12.57;nan;101312.84;5052447;28;20100;-78
2021/09/28 04:19:01;;;;;;;2.72;1.52;;;;;;;12.59;nan;101308.22;5070345;28;20442;-78
2021/09/28 04:21:27;;;;;;;2.50;1.60;;;;;;;12.58;nan;101314.50;5072367;28;20044;-78
2021/09/28 04:23:53;;;;;;;4.40;1.85;;;;;;;12.55;nan;101323.56;5072022;28;20493;-78
2021/09/28 04:26:18;;;;;;;4.28;1.95;;;;;;;12.52;nan;101319.41;5071226;28;20089;-78
2021/09/28 04:28:44;;;;;;;4.13;1.90;;;;;;;12.49;nan;101317.03;5053682;28;20032;-78
2021/09/28 04:31:12;;;;;;;4.82;2.30;;;;;;;12.51;nan;101316.88;5071237;28;20037;-78
2021/09/28 04:33:37;;;;;;;3.45;2.10;;;;;;;12.49;nan;101319.69;5069687;28;20198;-78
2021/09/28 04:36:03;;;;;;;4.15;1.90;;;;;;;12.49;nan;101318.88;5059318;28;20336;-78
2021/09/28 04:38:28;;;;;;;4.38;2.10;;;;;;;12.48;nan;101325.97;5052521;28;20409;-78
2021/09/28 04:40:53;;;;;;;3.78;2.00;;;;;;;12.47;nan;101324.31;5052425;28;20032;-78
2021/09/28 04:43:18;;;;;;;3.03;1.63;;;;;;;12.46;nan;101325.28;5070935;28;20488;-77
2021/09/28 04:45:44;;;;;;;3.42;1.95;;;;;;;12.49;nan;101330.31;5068928;28;20039;-77
2021/09/28 04:48:09;;;;;;;4.32;2.17;;;;;;;12.47;nan;101326.97;5050681;28;20048;-77
2021/09/28 04:50:34;;;;;;;4.43;2.05;;;;;;;12.47;nan;101324.31;5069386;28;20056;-77
2021/09/28 04:53:00;;;;;;;3.63;1.90;;;;;;;12.48;nan;101325.13;5069079;28;20032;-77
2021/09/28 04:55:25;;;;;;;3.78;2.05;;;;;;;12.46;nan;101333.22;5068945;28;20071;-77
2021/09/28 04:57:50;;;;;;;5.50;2.70;;;;;;;12.45;nan;101328.09;5051720;28;20113;-77
2021/09/28 05:00:16;;;;;;;5.35;3.10;;;;;;;12.45;nan;101333.38;5050880;28;20029;-77
2021/09/28 05:02:41;;;;;;;7.63;3.20;;;;;;;12.43;nan;101335.34;5070076;28;20493;-77
2021/09/28 05:05:07;;;;;;;5.18;2.72;;;;;;;12.42;nan;101337.16;5069680;28;20055;-77
2021/09/28 05:07:32;;;;;;;5.45;2.15;;;;;;;12.51;nan;101349.56;5041656;28;20047;-76
2021/09/28 05:09:57;;;;;;;2.90;1.70;;;;;;;12.63;nan;101347.59;5069850;28;20032;-77
2021/09/28 05:12:23;;;;;;;5.10;2.40;;;;;;;12.62;nan;101348.53;5050433;28;20118;-77
2021/09/28 05:14:48;;;;;;;4.47;1.90;;;;;;;12.59;nan;101348.00;5068738;28;20032;-77
2021/09/28 05:17:13;;;;;;;2.10;1.20;;;;;;;12.63;nan;101354.69;5049760;28;20800;-76
2021/09/28 05:19:39;;;;;;;3.67;1.75;;;;;;;12.59;nan;101350.66;5068729;28;20041;-77
2021/09/28 05:22:04;;;;;;;4.53;1.90;;;;;;;12.57;nan;101348.16;5069035;28;20086;-76
2021/09/28 05:24:29;;;;;;;4.00;1.92;;;;;;;12.65;nan;101364.16;5049635;28;20584;-77
2021/09/28 05:26:55;;;;;;;4.15;1.85;;;;;;;12.68;nan;101365.69;5045334;28;20428;-76
2021/09/28 05:29:20;;;;;;;4.90;2.00;;;;;;;12.66;nan;101359.72;5068763;28;20047;-77
2021/09/28 05:31:45;;;;;;;3.90;1.88;;;;;;;12.65;nan;101361.50;5051254;28;20040;-77
2021/09/28 05:34:11;;;;;;;3.22;1.90;;;;;;;12.66;nan;101349.09;5051025;28;20033;-77
2021/09/28 05:36:36;;;;;;;;;;;;;;;12.64;nan;101357.19;5052500;28;20037;-76
2021/09/28 05:39:02;;;;;;;3.58;1.70;;;;;;;12.70;nan;101361.94;5072394;28;20435;-77
2021/09/28 05:41:27;;;;;;;5.13;2.05;;;;;;;12.67;nan;101358.72;5074210;28;20083;-77
2021/09/28 05:43:53;;;;;;;3.00;1.63;;;;;;;12.66;nan;101357.91;5074368;28;20451;-77
2021/09/28 05:46:18;;;;;;;5.47;1.90;;;;;;;12.66;nan;101362.38;5073282;28;20045;-77
2021/09/28 05:48:43;;;;;;;;;;;;;;;12.67;nan;101370.16;5074477;28;20059;-77
2021/09/28 05:51:16;;;;;;;;;;;;;;;12.79;nan;101357.56;5074794;28;19994;-77
2021/09/28 05:53:43;;;;;;;8.45;2.72;;;;;;;13.01;nan;101358.16;5075361;28;19923;-77
2021/09/28 05:56:09;;;;;;;6.53;2.47;;;;;;;13.22;nan;101363.22;5074398;28;20035;-77
2021/09/28 05:58:34;;;;;;;8.50;2.88;;;;;;;13.52;nan;101364.75;5075103;28;20116;-77
2021/09/28 06:00:59;;;;;;;9.38;3.35;;;;;;;13.71;nan;101363.78;5057019;28;20115;-77
2021/09/28 06:03:25;;;;;;;6.22;2.25;;;;;;;13.55;nan;101357.31;5055398;28;20044;-77
2021/09/28 06:05:50;;;;;;;5.85;2.38;;;;;;;13.49;nan;101368.56;5073380;28;20040;-77
2021/09/28 06:08:15;;;;;;;5.03;2.10;;;;;;;13.42;nan;101369.28;5072854;28;20025;-77
2021/09/28 06:10:42;;;;;;;5.72;2.20;;;;;;;13.37;nan;101362.63;5071853;28;20029;-77
2021/09/28 06:13:08;;;;;;;7.95;2.70;;;;;;;13.33;nan;101358.59;5054260;28;20374;-77
2021/09/28 06:15:33;;;;;;;2.70;1.50;;;;;;;13.41;nan;101368.44;5070081;28;20410;-77
2021/09/28 06:17:58;;;;;;;4.63;1.98;;;;;;;13.44;nan;101367.31;5072761;28;20036;-77
2021/09/28 06:20:24;;;;;;;5.13;2.17;;;;;;;13.49;nan;101368.56;5053101;28;20111;-76
2021/09/28 06:22:49;;;;;;;6.07;2.33;;;;;;;13.58;nan;101364.97;5071733;28;20060;-77
2021/09/28 06:25:15;;;;;;;5.78;2.42;;;;;;;13.69;nan;101371.06;5071867;28;20029;-77
2021/09/28 06:27:40;;;;;;;3.22;1.90;;;;;;;13.80;nan;101360.22;5071992;28;20043;-77
2021/09/28 06:30:06;;;;;;;4.60;2.28;;;;;;;13.83;nan;101365.22;5070436;28;20132;-76
2021/09/28 06:32:32;;;;;;;5.45;2.35;;;;;;;13.90;nan;101362.78;5071341;28;20173;-76
2021/09/28 06:34:58;;;;;;;5.50;2.35;;;;;;;13.91;nan;101365.28;5052988;28;20040;-76
2021/09/28 06:37:23;;;;;;;6.10;2.80;;;;;;;13.87;nan;101371.91;5070918;28;20037;-77
2021/09/28 06:39:48;;;;;;;5.90;2.50;;;;;;;13.90;nan;101371.59;5071271;28;20028;-76
2021/09/28 06:42:13;;;;;;;5.25;2.55;;;;;;;13.93;nan;101371.28;5071541;28;20060;-77
2021/09/28 06:44:39;;;;;;;6.25;2.33;;;;;;;13.96;nan;101368.31;5053153;28;20047;-77
2021/09/28 06:47:04;;;;;;;5.45;2.30;;;;;;;14.05;nan;101361.25;5071332;28;20041;-77
2021/09/28 06:49:29;;;;;;;5.68;2.17;;;;;;;14.25;nan;101377.84;5071289;28;20044;-76
2021/09/28 06:51:57;;;;;;;5.25;2.10;;;;;;;14.41;nan;101370.00;5071562;28;20033;-77
2021/09/28 06:54:22;;;;;;;4.57;2.03;;;;;;;14.59;nan;101377.13;5064293;28;20040;-76
2021/09/28 06:56:47;;;;;;;5.35;2.15;;;;;;;14.50;nan;101375.38;5068307;28;20048;-77
2021/09/28 06:59:12;;;;;;;2.90;1.45;;;;;;;14.48;nan;101383.50;5069269;28;20055;-76
2021/09/28 07:01:38;;;;;;;5.88;2.10;;;;;;;14.48;nan;101383.50;5070342;28;20531;-76
2021/09/28 07:04:04;;;;;;;;;;;;;;;14.46;nan;101377.50;5069311;28;20067;-76
2021/09/28 07:06:30;;;;;;;4.50;2.00;;;;;;;14.45;nan;101370.53;5070671;28;19955;-77
2021/09/28 07:08:55;;;;;;;3.42;1.75;;;;;;;14.56;nan;101372.97;5070656;28;20122;-76
2021/09/28 07:11:21;;;;;;;4.50;1.85;;;;;;;14.74;nan;101372.88;5070627;28;20508;-76
2021/09/28 07:13:49;;;;;;;4.28;2.10;;;;;;;14.70;nan;101378.69;5070517;28;20077;-76
2021/09/28 07:16:16;;;;;;;4.85;2.22;;;;;;;14.69;nan;101377.84;5069469;28;20029;-76
2021/09/28 07:18:41;;;;;;;6.88;2.60;;;;;;;14.77;nan;101382.38;5053955;28;20497;-75
2021/09/28 07:21:07;;;;;;;5.72;2.35;;;;;;;14.79;nan;101375.91;5070113;28;20043;-76
2021/09/28 07:23:34;;;;;;;4.70;2.22;;;;;;;15.02;nan;101372.69;5069825;28;20323;-76
2021/09/28 07:26:00;;;;;;;4.28;2.10;;;;;;;15.19;nan;101371.75;5070662;28;20455;-76
2021/09/28 07:28:26;;;;;;;6.80;2.63;;;;;;;15.32;nan;101378.44;5069633;28;20047;-76
2021/09/28 07:30:51;;;;;;;6.20;3.10;;;;;;;15.32;nan;101378.44;5069896;28;20500;-76
2021/09/28 07:33:17;;;;;;;5.45;2.70;;;;;;;14.99;nan;101371.19;5069409;28;20123;-76
2021/09/28 07:35:44;;;;;;;5.47;3.00;;;;;;;14.96;nan;101370.66;5064630;28;20036;-76
2021/09/28 07:38:14;;;;;;;6.68;3.22;;;;;;;15.24;nan;101373.94;5044666;28;20086;-76
2021/09/28 07:40:42;;;;;;;5.40;3.10;;;;;;;15.18;nan;101363.91;5072809;28;20286;-76
2021/09/28 07:43:07;;;;;;;4.15;2.30;;;;;;;15.28;nan;101368.13;5053954;28;20074;-76
2021/09/28 07:45:33;;;;;;;3.85;2.47;;;;;;;15.85;nan;101371.91;5070541;28;20036;-75
2021/09/28 07:47:59;;;;;;;3.05;2.03;;;;;;;16.53;nan;101370.72;5069744;28;20412;-76
2021/09/28 07:50:25;;;;;;;5.40;3.00;;;;;;;16.95;nan;101372.28;5069670;28;22346;-75
2021/09/28 07:52:50;;;;;;;4.85;2.65;;;;;;;16.93;nan;101366.28;5052048;28;20064;-76
2021/09/28 07:55:15;;;;;;;8.88;2.90;;;;;;;17.22;nan;101370.16;5051633;28;20028;-76
2021/09/28 07:57:41;;;;;;;5.05;1.83;;;;;;;17.52;nan;101371.16;5069818;28;20049;-76
2021/09/28 08:00:09;;;;;;;5.05;2.28;;;;;;;17.78;nan;101373.47;5050752;28;20061;-77
2021/09/28 08:02:36;;;;;;;3.85;1.80;;;;;;;17.78;nan;101371.66;5051302;28;20029;-76
2021/09/28 08:05:01;;;;;;;8.30;2.28;;;;;;;17.94;nan;101376.06;5069514;28;20124;-76
2021/09/28 08:07:26;;;;;;;5.13;2.05;;;;;;;17.73;nan;101375.88;5069252;28;20123;-76
2021/09/28 08:09:52;;;;;;;5.05;2.28;;;;;;;17.41;nan;101367.88;5069398;28;20412;-76
2021/09/28 08:12:17;;;;;;;3.30;1.90;;;;;;;17.12;nan;101371.22;5068849;28;20551;-76
2021/09/28 08:14:43;;;;;;;3.17;1.60;;;;;;;17.07;nan;101378.09;5069417;28;20060;-76
2021/09/28 08:17:08;;;;;;;5.80;2.08;;;;;;;16.84;nan;101376.16;5055868;28;20068;-76
2021/09/28 08:19:38;;;;;;;4.90;1.80;;;;;;;16.40;nan;101379.25;5069593;28;20127;-76
2021/09/28 08:22:04;;;;;;;4.10;1.80;;;;;;;16.30;nan;101376.75;5069908;28;20318;-75
2021/09/28 08:24:34;;;;;;;3.92;1.70;;;;;;;16.38;nan;101380.44;5068122;28;20048;-75
2021/09/28 08:29:43;;;;;;;4.40;1.80;;;;;;;16.73;nan;101382.69;5069613;28;20089;-76
2021/09/28 08:32:08;;;;;;;3.88;1.50;;;;;;;16.55;nan;101377.53;5050889;28;20415;-76
2021/09/28 08:34:37;;;;;;;3.03;1.40;;;;;;;16.36;nan;101372.56;5069107;28;20036;-76
2021/09/28 08:37:04;;;;;;;2.53;1.30;;;;;;;16.29;nan;101377.75;5051277;28;20036;-78
2021/09/28 08:39:29;;;;;;;2.38;1.20;;;;;;;16.32;nan;101379.25;5051116;28;20052;-77
2021/09/28 08:41:56;;;;;;;3.85;1.30;;;;;;;16.86;nan;101382.16;5069402;28;20075;-77
2021/09/28 08:44:22;;;;;;;4.80;1.70;;;;;;;18.17;nan;101372.56;5051030;28;20045;-76
2021/09/28 08:46:49;;;;;;;3.40;1.33;;;;;;;19.61;nan;101376.56;5068425;28;20131;-77
2021/09/28 08:49:19;;;;;;;5.60;1.50;;;;;;;20.77;nan;101370.94;5049604;28;20033;-77
2021/09/28 08:51:48;;;;;;;4.90;1.45;;;;;;;21.52;nan;101379.09;5068685;28;20557;-77
2021/09/28 08:54:14;;;;;;;2.60;0.80;;;;;;;22.35;nan;101378.78;5048774;28;20412;-77
2021/09/28 08:56:40;;;;;;;1.80;0.80;;;;;;;22.76;nan;101377.66;5068726;28;20399;-77
2021/09/28 08:59:07;;;;;;;6.47;1.17;;;;;;;22.97;nan;101379.25;5069696;28;20055;-76
2021/09/28 09:01:35;;;;;;;2.42;1.00;;;;;;;23.39;nan;101374.34;5070110;28;20037;-77
2021/09/28 09:04:26;;;;;;;4.55;1.50;;;;;;;23.57;nan;101371.72;5069086;28;20029;-76
2021/09/28 09:06:54;;;;;;;8.00;1.70;;;;;;;23.93;nan;101363.00;5048473;28;20036;-77
2021/09/28 09:09:21;;;;;;;4.00;1.30;;;;;;;23.25;nan;101363.59;5068713;28;20412;-76
2021/09/28 09:11:48;;;;;;;4.63;1.02;;;;;;;22.95;nan;101362.47;5068766;28;20056;-76
2021/09/28 09:14:16;;;;;;;;;;;;;;;23.27;nan;101358.00;5071196;28;20024;-77
2021/09/28 09:16:44;;;;;;;4.93;1.55;;;;;;;22.82;nan;101356.09;5073692;28;20008;-77
2021/09/28 09:19:16;;;;;;;3.67;1.20;;;;;;;22.91;nan;101356.69;5074204;28;20145;-77
2021/09/28 09:21:53;;;;;;;3.22;1.20;;;;;;;23.35;nan;101354.22;5073702;28;20398;-76
2021/09/28 09:24:42;;;;;;;2.67;0.90;;;;;;;22.90;nan;101345.03;5074771;28;20481;-76
2021/09/28 09:27:10;;;;;;;2.17;0.90;;;;;;;21.91;nan;101345.22;5073224;28;20411;-76
2021/09/28 09:29:35;;;;;;;3.30;1.08;;;;;;;20.78;nan;101348.38;5077169;28;20043;-76
2021/09/28 09:32:01;;;;;;;3.85;1.40;;;;;;;20.44;nan;101344.66;5057963;28;20404;-76
2021/09/28 09:34:27;;;;;;;5.75;1.35;;;;;;;20.03;nan;101348.06;5074035;28;20052;-76
2021/09/28 09:37:08;;;;;;;3.40;0.90;;;;;;;20.47;nan;101348.78;5073960;28;20060;-76
2021/09/28 09:39:53;;;;;;;3.20;1.05;;;;;;;20.95;nan;101349.72;5074444;28;20548;-77
2021/09/28 09:42:20;;;;;;;;;;;;;;;20.71;nan;101344.84;5073335;28;20223;-76
2021/09/28 09:44:46;;;;;;;;;;;;;;;20.66;nan;101339.22;5055068;28;19916;-77
2021/09/28 09:47:45;;;;;;;3.67;1.00;;;;;;;20.03;nan;101337.34;5071671;28;19916;-76
2021/09/28 09:50:13;;;;;;;4.55;1.20;;;;;;;20.01;nan;101335.88;5034568;28;20054;-76
2021/09/28 09:52:58;;;;;;;5.25;1.45;;;;;;;20.15;nan;101332.25;5078703;28;20047;-76
2021/09/28 09:55:28;;;;;;;4.22;1.10;;;;;;;19.85;nan;101331.59;5054115;28;20037;-76
2021/09/28 09:57:54;;;;;;;5.00;1.00;;;;;;;19.80;nan;101337.53;5073025;28;20127;-76
2021/09/28 10:00:20;;;;;;;4.38;1.40;;;;;;;20.14;nan;101320.69;5071699;28;20041;-76
2021/09/28 10:02:46;;;;;;;4.30;1.15;;;;;;;19.84;nan;101329.94;5053141;28;20033;-76
2021/09/28 10:05:11;;;;;;;4.93;1.20;;;;;;;19.35;nan;101317.25;5071485;28;20039;-75
2021/09/28 10:07:37;;;;;;;3.78;1.50;;;;;;;19.47;nan;101310.38;5053676;28;20060;-76
2021/09/28 10:10:03;;;;;;;4.75;1.45;;;;;;;19.57;nan;101316.28;5072386;28;20043;-75
2021/09/28 10:12:38;;;;;;;4.70;1.30;;;;;;;19.09;nan;101311.44;5053859;28;20032;-75
2021/09/28 10:15:17;;;;;;;5.85;1.70;;;;;;;19.13;nan;101301.16;5072106;28;20029;-76
2021/09/28 10:17:48;;;;;;;5.15;1.55;;;;;;;19.25;nan;101296.13;5054935;28;20029;-76
2021/09/28 10:20:22;;;;;;;4.82;1.77;;;;;;;19.45;nan;101301.69;5054828;28;20135;-76
2021/09/28 10:22:55;;;;;;;3.78;1.30;;;;;;;19.33;nan;101289.81;5073025;28;20040;-76
2021/09/28 10:25:20;;;;;;;4.35;1.50;;;;;;;18.88;nan;101290.78;5071087;28;20040;-76
2021/09/28 10:27:47;;;;;;;4.88;1.52;;;;;;;18.99;nan;101291.28;5071969;28;20119;-75
2021/09/28 10:30:33;;;;;;;3.58;1.77;;;;;;;18.83;nan;101295.00;5071810;28;20032;-75
2021/09/28 10:33:06;;;;;;;4.95;1.73;;;;;;;18.44;nan;101283.56;5071911;28;20074;-75
2021/09/28 10:35:35;;;;;;;5.80;1.70;;;;;;;18.82;nan;101286.16;5071269;28;20032;-76
2021/09/28 10:38:03;;;;;;;5.28;1.50;;;;;;;18.65;nan;101285.50;5052625;28;20025;-76
2021/09/28 10:40:28;;;;;;;7.13;1.73;;;;;;;18.65;nan;101276.63;5052441;28;20040;-76
2021/09/28 10:42:59;;;;;;;3.97;1.40;;;;;;;18.60;nan;101274.50;5071288;28;20032;-76
2021/09/28 10:45:35;;;;;;;4.30;1.38;;;;;;;18.29;nan;101280.06;5058875;28;20396;-75
2021/09/28 10:48:07;;;;;;;3.60;1.23;;;;;;;18.48;nan;101275.19;5070886;28;20033;-75
2021/09/28 10:50:43;;;;;;;4.03;1.77;;;;;;;18.62;nan;101266.31;5071060;28;20071;-75
2021/09/28 10:53:28;;;;;;;4.43;1.50;;;;;;;18.76;nan;101259.25;5071721;28;20035;-75
2021/09/28 10:56:01;;;;;;;4.95;1.48;;;;;;;18.97;nan;101255.81;5070659;28;20539;-75
2021/09/28 10:58:28;;;;;;;4.38;1.42;;;;;;;18.95;nan;101233.72;5053233;28;20132;-75
2021/09/28 11:00:53;;;;;;;3.50;1.23;;;;;;;19.09;nan;101252.47;5070976;28;20106;-75
2021/09/28 11:03:44;;;;;;;3.85;1.40;;;;;;;19.16;nan;101252.50;5070726;28;20040;-75
2021/09/28 11:06:11;;;;;;;3.20;1.38;;;;;;;19.03;nan;101249.69;5070814;28;20041;-75
2021/09/28 11:08:38;;;;;;;3.80;1.15;;;;;;;19.24;nan;101248.88;5053258;28;20036;-75
2021/09/28 11:11:08;;;;;;;4.45;1.30;;;;;;;19.14;nan;101243.00;5071343;28;20025;-76
2021/09/28 11:13:39;;;;;;;3.65;1.27;;;;;;;19.21;nan;101246.56;5070586;28;20039;-74
2021/09/28 11:16:07;;;;;;;4.40;1.20;;;;;;;18.99;nan;101241.19;5051718;28;20040;-75
2021/09/28 11:18:33;;;;;;;5.00;1.30;;;;;;;18.93;nan;101236.63;5070304;28;20037;-75
2021/09/28 11:21:13;;;;;;;5.22;1.33;;;;;;;18.64;nan;101238.31;5070468;28;20032;-74
2021/09/28 11:23:40;;;;;;;6.55;1.58;;;;;;;18.48;nan;101227.81;5070481;28;20024;-75
2021/09/28 11:26:06;;;;;;;4.97;1.30;;;;;;;18.24;nan;101228.94;5069376;28;20032;-75
2021/09/28 11:28:31;;;;;;;3.72;1.40;;;;;;;18.23;nan;101227.25;5051696;28;20043;-74
2021/09/28 11:30:58;;;;;;;3.95;1.25;;;;;;;18.33;nan;101225.16;5052325;28;20041;-74
2021/09/28 11:33:24;;;;;;;5.40;1.45;;;;;;;18.35;nan;101232.97;5051444;28;20122;-75
2021/09/28 11:35:57;;;;;;;4.68;1.40;;;;;;;17.87;nan;101229.81;5069372;28;20094;-74
2021/09/28 11:38:31;;;;;;;5.57;1.48;;;;;;;17.93;nan;101219.22;5069605;28;20033;-74
2021/09/28 11:41:13;;;;;;;3.67;1.13;;;;;;;17.92;nan;101219.41;5069675;28;20074;-75
2021/09/28 11:43:41;;;;;;;3.92;1.30;;;;;;;18.02;nan;101211.94;5052119;28;20033;-74
2021/09/28 11:46:06;;;;;;;2.95;1.10;;;;;;;17.78;nan;101202.28;5069220;28;20032;-74